Overview Statistics Trail Chart Weather Telemetry Raw packets
 

This is the latest recevied weather packets stored in our database for station/object EA2MKR. If no packets are shown the sender has not sent any weather packets the latest 10 day(s).

<< 10 11 12 13 14 15 16 >>
Time Temp. Humidity Pressure Rain* Wind** Luminosity Snow
1788553734 25° C 60% 959.9 hPa 0 mm - - -
1788553432 25.56° C 58% 959.9 hPa 0 mm - - -
1788552829 26.67° C 54% 959.7 hPa 0 mm - - -
1788552522 27.22° C 49% 959.6 hPa 0 mm - - -
1788552220 27.22° C 48% 959.5 hPa 0 mm - - -
1788551917 27.78° C 43% 959.3 hPa 0 mm - - -
1788551740 27.78° C 43% 959.2 hPa 0 mm - - -
1788551325 27.78° C 43% 959 hPa 0 mm - - -
1788551141 28.33° C 43% 958.9 hPa 0 mm - - -
1788550841 28.33° C 43% 958.9 hPa 0 mm - - -
1788550417 28.33° C 42% 958.7 hPa 0 mm - - -
1788550240 28.33° C 42% 958.6 hPa 0 mm - - -
1788549940 28.89° C 42% 958.6 hPa 0 mm - - -
1788549543 28.89° C 40% 958.5 hPa 0 mm - - -
1788549215 28.89° C 41% 958.5 hPa 0 mm - - -
1788548913 29.44° C 41% 958.5 hPa 0 mm - - -
1788548736 30° C 40% 958.3 hPa 0 mm - - -
1788548435 30° C 39% 958.1 hPa 0 mm - - -
1788548011 30.56° C 38% 958 hPa 0 mm - - -
1788547712 30.56° C 37% 958 hPa 0 mm - - -
1788547411 31.11° C 34% 957.9 hPa 0 mm - - -
1788547111 31.67° C 31% 957.8 hPa 0 mm - - -
1788546811 31.67° C 30% 957.7 hPa 0 mm - - -
1788546511 32.22° C 27% 957.7 hPa 0 mm - - -
1788546211 32.22° C 26% 957.5 hPa 25.65 mm - - -

* Rain latest hour (hover to see other rain measurements)
** Current wind speed in m/s (hover to see current wind gust speed)